Time;durP1;ratioP1;P1;durP2;ratioP2;P2;SDS_P1;SDS_P2;PMS_P1;PMS_P2;Temp;Humidity;BMP_temperature;BMP_pressure;BME280_temperature;BME280_humidity;BME280_pressure;Samples;Min_cycle;Max_cycle;Signal;HPM_P1;HPM_P2
2022/07/25 00:02:02;;;;;;;14.52;12.13;;;;;;;23.19;60.70;97621.75;10369969;28;20060;-57
2022/07/25 00:07:01;;;;;;;14.65;12.70;;;;;;;23.02;61.50;97624.44;10370433;28;20037;-56
2022/07/25 00:12:00;;;;;;;14.38;12.65;;;;;;;22.95;61.48;97612.47;10369966;28;20072;-56
2022/07/25 00:16:59;;;;;;;14.25;12.48;;;;;;;22.91;61.45;97613.59;10369394;28;20025;-56
2022/07/25 00:21:58;;;;;;;13.52;12.15;;;;;;;22.88;62.04;97605.81;10376617;28;20068;-56
2022/07/25 00:26:57;;;;;;;15.55;12.50;;;;;;;22.83;61.72;97587.53;10377292;28;20031;-56
2022/07/25 00:31:57;;;;;;;15.18;12.57;;;;;;;22.90;61.78;97599.50;10376196;28;20486;-56
2022/07/25 00:36:56;;;;;;;15.38;12.80;;;;;;;22.90;62.54;97590.69;10376292;28;20072;-56
2022/07/25 00:41:55;;;;;;;14.10;12.60;;;;;;;22.88;62.58;97587.28;10376721;28;20076;-57
2022/07/25 00:46:55;;;;;;;15.60;13.23;;;;;;;22.84;62.71;97593.69;10376040;28;20021;-56
2022/07/25 00:51:54;;;;;;;14.88;13.27;;;;;;;22.70;63.88;97595.25;10375176;28;20072;-56
2022/07/25 00:56:53;;;;;;;16.80;13.10;;;;;;;22.67;63.60;97606.00;10376057;28;20619;-57
2022/07/25 01:01:52;;;;;;;16.15;13.23;;;;;;;22.66;63.88;97606.91;10376395;28;20630;-56
2022/07/25 01:06:51;;;;;;;15.45;13.38;;;;;;;22.66;64.20;97603.41;10375221;28;20063;-56
2022/07/25 01:11:50;;;;;;;15.77;13.27;;;;;;;22.63;64.27;97599.16;10375659;28;20102;-56
2022/07/25 01:16:49;;;;;;;16.92;13.57;;;;;;;22.61;64.36;97603.66;10374952;28;20080;-56
2022/07/25 01:21:48;;;;;;;16.40;13.30;;;;;;;22.52;64.41;97589.13;10375421;28;20068;-56
2022/07/25 01:26:47;;;;;;;16.98;13.70;;;;;;;22.59;64.20;97589.66;10375504;28;20025;-56
2022/07/25 01:31:46;;;;;;;14.05;12.60;;;;;;;22.51;64.09;97576.84;10372985;28;20037;-56
2022/07/25 01:36:45;;;;;;;14.00;12.50;;;;;;;22.50;63.91;97585.69;10374123;28;20095;-57
2022/07/25 01:41:44;;;;;;;13.77;12.35;;;;;;;22.30;64.40;97573.50;10373990;28;20058;-56
2022/07/25 01:46:43;;;;;;;15.38;13.15;;;;;;;22.26;65.14;97601.03;10374398;28;20033;-56
2022/07/25 01:51:42;;;;;;;17.55;14.90;;;;;;;22.12;65.92;97593.78;10373670;28;20446;-56
2022/07/25 01:56:45;;;;;;;19.92;14.95;;;;;;;21.96;66.63;97588.38;10372990;28;20044;-56
2022/07/25 02:01:44;;;;;;;18.85;15.70;;;;;;;21.88;67.36;97590.56;10373555;28;20064;-57
2022/07/25 02:06:43;;;;;;;18.48;16.25;;;;;;;21.82;67.45;97590.00;10371520;28;20069;-56
2022/07/25 02:11:42;;;;;;;18.30;15.32;;;;;;;21.82;67.44;97590.84;10374050;28;20068;-57
2022/07/25 02:16:41;;;;;;;19.52;15.50;;;;;;;21.83;67.59;97595.22;10372485;28;20055;-56
2022/07/25 02:21:40;;;;;;;17.33;15.45;;;;;;;21.81;67.38;97581.22;10372313;28;20493;-56
2022/07/25 02:26:39;;;;;;;17.73;14.73;;;;;;;21.86;67.43;97588.94;10372810;28;20056;-56
2022/07/25 02:31:38;;;;;;;17.67;14.80;;;;;;;21.83;67.60;97589.94;10372496;28;20068;-56
2022/07/25 02:36:37;;;;;;;18.63;14.80;;;;;;;21.81;67.89;97585.66;10374958;28;20035;-56
2022/07/25 02:41:36;;;;;;;19.92;14.75;;;;;;;21.74;67.66;97579.81;10375486;28;20091;-56
2022/07/25 02:46:35;;;;;;;18.35;15.13;;;;;;;21.64;69.05;97589.09;10374727;28;20490;-57
2022/07/25 02:51:34;;;;;;;18.17;15.32;;;;;;;21.54;70.04;97596.63;10374962;28;20040;-55
2022/07/25 02:56:33;;;;;;;19.70;15.48;;;;;;;21.31;70.99;97595.94;10374841;28;20456;-56
2022/07/25 03:01:32;;;;;;;19.80;15.55;;;;;;;21.24;71.01;97599.78;10375182;28;20041;-56
2022/07/25 03:06:31;;;;;;;18.20;16.13;;;;;;;21.21;70.83;97612.25;10375334;28;20041;-56
2022/07/25 03:11:30;;;;;;;18.77;14.40;;;;;;;21.24;70.88;97598.91;10374690;28;20060;-57
2022/07/25 03:16:29;;;;;;;18.90;15.25;;;;;;;21.27;70.71;97604.91;10374625;28;20039;-56
2022/07/25 03:21:28;;;;;;;18.60;14.82;;;;;;;21.29;70.57;97602.22;10374737;28;20068;-57
2022/07/25 03:26:27;;;;;;;21.08;16.05;;;;;;;21.29;70.43;97602.22;10373945;28;20045;-56
2022/07/25 03:31:27;;;;;;;18.25;15.32;;;;;;;21.27;70.71;97597.00;10375196;28;20045;-56
2022/07/25 03:36:26;;;;;;;23.45;15.40;;;;;;;21.27;71.00;97606.72;10371318;28;20418;-56
2022/07/25 03:41:25;;;;;;;21.73;15.70;;;;;;;21.26;71.21;97602.34;10370651;28;20421;-56
2022/07/25 03:46:24;;;;;;;21.55;16.45;;;;;;;21.12;72.21;97600.31;10371493;28;20033;-56
2022/07/25 03:51:24;;;;;;;19.70;16.40;;;;;;;20.99;72.70;97594.75;10370678;28;20095;-56
2022/07/25 03:56:23;;;;;;;17.40;15.23;;;;;;;20.78;73.72;97614.19;10376477;28;20060;-57
2022/07/25 04:01:22;;;;;;;21.45;16.40;;;;;;;20.50;74.55;97607.47;10378208;28;20037;-57
2022/07/25 04:06:22;;;;;;;20.75;18.60;;;;;;;20.29;75.15;97601.31;10377397;28;20515;-57
2022/07/25 04:11:21;;;;;;;22.48;19.25;;;;;;;20.33;74.93;97604.66;10377338;28;20076;-57
2022/07/25 04:16:21;;;;;;;19.52;17.42;;;;;;;20.44;74.76;97610.38;10376080;28;20113;-57
2022/07/25 04:21:20;;;;;;;24.38;20.75;;;;;;;20.48;75.13;97606.69;10375028;28;20064;-57
2022/07/25 04:26:19;;;;;;;29.20;23.35;;;;;;;20.53;75.59;97612.63;10376558;28;20064;-57
2022/07/25 04:31:18;;;;;;;23.00;20.60;;;;;;;20.65;75.17;97605.94;10377245;28;20068;-57
2022/07/25 04:36:17;;;;;;;23.17;19.15;;;;;;;20.77;75.20;97612.47;10373665;28;20053;-57
2022/07/25 04:41:16;;;;;;;23.70;19.70;;;;;;;20.87;74.86;97611.13;10374421;28;20439;-57
2022/07/25 04:46:19;;;;;;;21.40;18.45;;;;;;;21.09;74.21;97618.94;10373597;28;20044;-57
2022/07/25 04:51:18;;;;;;;24.30;16.98;;;;;;;21.24;73.34;97604.19;10374781;28;20056;-57
2022/07/25 04:56:17;;;;;;;22.42;17.88;;;;;;;21.41;72.79;97604.28;10374809;28;20107;-57
2022/07/25 05:01:16;;;;;;;23.23;19.35;;;;;;;21.43;73.06;97615.63;10367920;28;20044;-57
2022/07/25 05:06:15;;;;;;;24.23;19.38;;;;;;;21.53;72.56;97608.97;10373205;28;20033;-57
2022/07/25 05:11:14;;;;;;;23.95;19.27;;;;;;;21.70;71.80;97607.31;10370839;28;20040;-55
2022/07/25 05:16:13;;;;;;;21.45;18.60;;;;;;;21.89;71.41;97596.69;10371754;28;20028;-57
2022/07/25 05:21:12;;;;;;;24.73;19.05;;;;;;;22.09;70.75;97603.69;10372786;28;20086;-55
2022/07/25 05:26:11;;;;;;;22.02;18.42;;;;;;;22.11;70.14;97604.47;10373680;28;20083;-55
2022/07/25 05:31:10;;;;;;;19.50;16.38;;;;;;;22.22;69.60;97607.41;10373421;28;20055;-57
2022/07/25 05:36:09;;;;;;;17.65;15.75;;;;;;;22.35;69.28;97600.56;10371820;28;20126;-57
2022/07/25 05:41:08;;;;;;;18.23;15.38;;;;;;;22.63;68.09;97603.59;10373303;28;20455;-55
2022/07/25 05:46:07;;;;;;;17.95;15.65;;;;;;;22.88;66.91;97595.22;10372429;28;20045;-55
2022/07/25 05:51:06;;;;;;;20.50;16.88;;;;;;;23.11;66.52;97589.53;10374017;28;20120;-55
2022/07/25 05:56:05;;;;;;;17.60;15.73;;;;;;;23.20;64.94;97591.69;10373290;28;20060;-55
2022/07/25 06:01:06;;;;;;;19.85;16.27;;;;;;;23.37;63.73;97589.91;10372433;28;20072;-55
2022/07/25 06:06:07;;;;;;;19.40;15.50;;;;;;;23.64;63.78;97580.44;10372353;28;20524;-55
2022/07/25 06:11:07;;;;;;;19.25;14.80;;;;;;;23.82;63.08;97575.91;10373027;28;20064;-55
2022/07/25 06:16:06;;;;;;;18.92;15.20;;;;;;;24.19;61.96;97578.22;10372456;28;20115;-57
2022/07/25 06:21:05;;;;;;;19.98;15.77;;;;;;;24.44;60.28;97583.78;10373191;28;20070;-55
2022/07/25 06:26:08;;;;;;;17.00;14.00;;;;;;;24.65;58.05;97586.09;10372107;28;20673;-55
2022/07/25 06:31:07;;;;;;;15.57;13.48;;;;;;;24.85;56.67;97584.88;10358069;28;20057;-55
2022/07/25 06:36:07;;;;;;;17.60;12.02;;;;;;;25.06;55.95;97577.41;10368945;28;20745;-55
2022/07/25 06:41:06;;;;;;;15.95;11.68;;;;;;;25.43;54.06;97567.94;10372595;28;20076;-55
2022/07/25 06:46:05;;;;;;;17.63;10.52;;;;;;;25.77;52.12;97562.28;10347245;28;20049;-55
2022/07/25 06:51:04;;;;;;;12.70;10.02;;;;;;;26.00;51.05;97561.63;10341177;28;20049;-55
2022/07/25 06:56:03;;;;;;;12.27;10.32;;;;;;;26.38;48.48;97566.19;10341066;28;20683;-55
2022/07/25 07:01:02;;;;;;;13.25;9.27;;;;;;;26.58;45.18;97568.34;10372718;28;20503;-57
2022/07/25 07:06:01;;;;;;;11.43;9.60;;;;;;;26.66;45.24;97569.59;10337134;28;20095;-57
2022/07/25 07:11:00;;;;;;;12.95;10.50;;;;;;;26.80;45.61;97569.50;10354380;28;20102;-56
2022/07/25 07:16:00;;;;;;;11.32;9.88;;;;;;;26.98;45.92;97576.22;10372786;28;20135;-57
2022/07/25 07:20:59;;;;;;;13.35;9.38;;;;;;;27.12;45.98;97566.38;10372577;28;20071;-57
2022/07/25 07:25:58;;;;;;;16.02;10.38;;;;;;;27.22;45.23;97556.78;10372004;28;20033;-57
2022/07/25 07:30:57;;;;;;;14.07;10.32;;;;;;;27.26;45.18;97576.94;10377769;28;20100;-57
2022/07/25 07:35:56;;;;;;;11.80;10.13;;;;;;;27.35;45.09;97568.28;10373208;28;20072;-57
2022/07/25 07:40:55;;;;;;;11.07;9.63;;;;;;;27.47;44.19;97573.69;10368152;28;20063;-57
2022/07/25 07:45:55;;;;;;;10.75;9.52;;;;;;;27.44;43.59;97569.41;10359778;28;20040;-57
2022/07/25 07:50:54;;;;;;;11.63;9.35;;;;;;;27.68;43.25;97558.81;10359827;28;20045;-57
2022/07/25 07:55:54;;;;;;;10.77;9.50;;;;;;;27.81;42.91;97564.06;10357563;28;20037;-57
2022/07/25 08:00:53;;;;;;;10.77;9.68;;;;;;;27.95;42.18;97571.88;10380608;28;20076;-57
2022/07/25 08:05:52;;;;;;;10.80;9.23;;;;;;;27.92;41.52;97571.28;10361962;28;20076;-57
2022/07/25 08:10:51;;;;;;;12.27;9.75;;;;;;;28.12;41.48;97562.66;10346973;28;20072;-57
2022/07/25 08:15:54;;;;;;;10.00;8.98;;;;;;;28.21;41.19;97571.78;10348640;28;20038;-57
2022/07/25 08:20:53;;;;;;;12.85;8.98;;;;;;;28.42;40.90;97567.47;10359180;28;20092;-57
2022/07/25 08:25:52;;;;;;;11.15;8.93;;;;;;;28.39;41.05;97569.53;10356795;28;20028;-57
2022/07/25 08:30:51;;;;;;;11.07;9.35;;;;;;;28.31;40.27;97553.25;10338500;28;20069;-57
2022/07/25 08:35:53;;;;;;;10.85;9.48;;;;;;;28.46;40.22;97558.25;10354311;28;20052;-57
2022/07/25 08:40:54;;;;;;;12.30;9.73;;;;;;;28.59;39.85;97558.16;10377589;28;20077;-57
2022/07/25 08:45:54;;;;;;;10.57;8.63;;;;;;;28.72;39.46;97534.06;10366182;28;20068;-57
2022/07/25 08:50:55;;;;;;;9.93;8.20;;;;;;;28.82;37.14;97556.38;10372557;28;20175;-56
2022/07/25 08:55:54;;;;;;;12.57;8.30;;;;;;;28.95;36.03;97550.94;10370208;28;20083;-56
2022/07/25 09:00:53;;;;;;;10.18;8.55;;;;;;;29.14;36.15;97554.81;10380585;28;20041;-56
2022/07/25 09:05:52;;;;;;;10.35;8.85;;;;;;;29.15;36.33;97545.81;10380978;28;20051;-56
2022/07/25 09:10:52;;;;;;;9.55;8.65;;;;;;;29.06;36.61;97542.94;10380692;28;20064;-56
2022/07/25 09:15:55;;;;;;;10.95;8.38;;;;;;;29.18;36.97;97534.88;10376277;28;20083;-56
2022/07/25 09:20:59;;;;;;;9.85;8.48;;;;;;;29.31;37.54;97540.97;10359016;28;20076;-56
2022/07/25 09:26:05;;;;;;;10.07;8.25;;;;;;;29.24;35.98;97534.41;10367982;28;20471;-57
2022/07/25 09:31:04;;;;;;;9.95;8.48;;;;;;;29.08;36.54;97530.28;10363677;28;20060;-57
2022/07/25 09:36:09;;;;;;;9.63;8.57;;;;;;;29.35;36.04;97525.56;10356811;28;20071;-56
2022/07/25 09:41:08;;;;;;;11.20;8.80;;;;;;;29.25;36.47;97536.06;10360969;28;20077;-56
2022/07/25 09:46:09;;;;;;;8.95;8.05;;;;;;;29.29;36.98;97537.56;10354931;28;20108;-56
2022/07/25 09:51:08;;;;;;;9.48;8.57;;;;;;;29.38;37.07;97515.44;10360030;28;20067;-56
2022/07/25 09:56:07;;;;;;;10.27;8.82;;;;;;;29.65;36.25;97522.19;10367865;28;20080;-56
2022/07/25 10:01:07;;;;;;;10.77;9.35;;;;;;;29.78;36.22;97522.00;10377556;28;20077;-56
2022/07/25 10:06:36;;;;;;;12.18;9.55;;;;;;;29.64;36.26;97523.16;10375266;28;20469;-56
2022/07/25 10:11:35;;;;;;;10.20;8.75;;;;;;;29.81;36.61;97519.06;10374151;28;20069;-56
2022/07/25 10:16:45;;;;;;;11.07;8.77;;;;;;;30.00;35.89;97519.28;10374181;28;20032;-56
2022/07/25 10:21:54;;;;;;;10.75;8.70;;;;;;;29.86;36.29;97517.75;10374484;28;20479;-56
2022/07/25 10:26:53;;;;;;;9.07;7.72;;;;;;;29.88;36.22;97518.47;10373654;28;20072;-56
2022/07/25 10:31:52;;;;;;;9.75;8.75;;;;;;;29.65;36.70;97517.69;10373876;28;20071;-56
2022/07/25 10:36:54;;;;;;;11.13;9.10;;;;;;;29.90;36.26;97519.19;10370919;28;20107;-56
2022/07/25 10:42:01;;;;;;;10.20;8.63;;;;;;;30.01;35.86;97498.72;10370004;28;20072;-57
2022/07/25 10:47:09;;;;;;;12.07;9.07;;;;;;;30.21;35.31;97505.03;10349379;28;20075;-56
2022/07/25 10:52:18;;;;;;;11.13;8.32;;;;;;;30.26;34.73;97495.66;10362229;28;20064;-56
2022/07/25 10:57:17;;;;;;;9.30;8.40;;;;;;;30.35;34.28;97491.31;10350224;28;20496;-56
2022/07/25 11:02:17;;;;;;;9.65;8.40;;;;;;;30.44;34.41;97492.38;10354185;28;20059;-56
2022/07/25 11:07:19;;;;;;;9.48;8.25;;;;;;;30.78;33.70;97489.47;10356524;28;20052;-56
2022/07/25 11:12:18;;;;;;;9.38;7.65;;;;;;;30.28;33.24;97485.66;10372352;28;20064;-56
2022/07/25 11:17:21;;;;;;;8.70;7.80;;;;;;;30.01;33.01;97478.16;10368977;28;20120;-56
2022/07/25 11:22:20;;;;;;;10.35;7.95;;;;;;;30.33;33.76;97470.03;10369748;28;20813;-56
2022/07/25 11:27:22;;;;;;;10.23;8.15;;;;;;;30.39;32.32;97465.97;10370059;28;20060;-56
2022/07/25 11:32:21;;;;;;;11.90;8.40;;;;;;;30.42;33.26;97470.25;10358981;28;20064;-56
2022/07/25 11:37:20;;;;;;;10.55;8.73;;;;;;;30.39;33.74;97459.78;10368707;28;20024;-56
2022/07/25 11:42:20;;;;;;;10.32;9.00;;;;;;;30.54;35.08;97462.00;10366206;28;20076;-56
2022/07/25 11:47:30;;;;;;;11.70;8.98;;;;;;;30.49;35.17;97447.31;10364891;28;20081;-56
2022/07/25 11:52:35;;;;;;;14.45;9.93;;;;;;;30.09;34.32;97454.28;10357304;28;20504;-56
2022/07/25 11:57:43;;;;;;;11.43;9.30;;;;;;;30.12;34.50;97447.81;10351139;28;20069;-56
2022/07/25 12:02:42;;;;;;;;;;;;;;;30.50;34.54;97443.66;10351969;28;20077;-56
2022/07/25 12:07:50;;;;;;;10.07;8.63;;;;;;;30.47;33.02;97450.13;10350255;28;19907;-56
2022/07/25 12:12:50;;;;;;;9.93;8.93;;;;;;;30.88;32.78;97444.78;10345541;28;20135;-56
2022/07/25 12:17:51;;;;;;;12.27;9.73;;;;;;;31.06;32.08;97440.50;10370303;28;20080;-56
2022/07/25 12:22:52;;;;;;;10.50;9.45;;;;;;;31.27;32.19;97418.94;10372126;28;20475;-56
2022/07/25 12:27:52;;;;;;;13.23;9.38;;;;;;;31.55;32.79;97419.97;10362418;28;20064;-56
2022/07/25 12:32:51;;;;;;;10.90;9.55;;;;;;;31.68;31.42;97410.78;10362365;28;20080;-56
2022/07/25 12:37:50;;;;;;;12.82;9.18;;;;;;;31.61;30.63;97406.97;10363883;28;20080;-56
2022/07/25 12:42:50;;;;;;;13.73;9.40;;;;;;;31.36;29.82;97414.59;10375075;28;20574;-57
2022/07/25 12:47:49;;;;;;;10.00;8.38;;;;;;;31.23;31.26;97408.63;10376358;28;20087;-56
2022/07/25 12:52:48;;;;;;;10.25;9.25;;;;;;;31.72;31.01;97401.47;10375894;28;20063;-56
2022/07/25 12:57:47;;;;;;;11.15;9.27;;;;;;;32.19;30.86;97404.22;10375921;28;20041;-56
2022/07/25 13:02:49;;;;;;;13.07;10.27;;;;;;;31.93;31.52;97407.50;10358462;28;20087;-56
2022/07/25 13:07:49;;;;;;;11.15;9.52;;;;;;;31.55;31.39;97389.63;10334635;28;20061;-57
2022/07/25 13:12:48;;;;;;;11.02;9.63;;;;;;;31.74;31.61;97383.41;10334331;28;20073;-56
2022/07/25 13:17:47;;;;;;;10.60;9.38;;;;;;;31.78;30.32;97392.84;10334759;28;20084;-56
2022/07/25 13:22:46;;;;;;;10.85;8.95;;;;;;;31.61;30.81;97381.00;10334021;28;20041;-57
2022/07/25 13:27:47;;;;;;;9.77;8.77;;;;;;;31.46;30.55;97382.41;10333648;28;20010;-57
2022/07/25 13:32:46;;;;;;;9.57;8.57;;;;;;;31.43;28.60;97372.81;10332586;28;20069;-57
2022/07/25 13:37:45;;;;;;;9.90;8.73;;;;;;;31.31;28.83;97363.19;10361290;28;20033;-56
2022/07/25 13:42:44;;;;;;;10.60;8.95;;;;;;;31.70;28.78;97373.94;10373807;28;20084;-57
2022/07/25 13:47:43;;;;;;;10.55;9.45;;;;;;;32.14;29.51;97360.88;10374516;28;20025;-56
2022/07/25 13:52:42;;;;;;;11.20;9.10;;;;;;;32.30;28.58;97363.78;10371590;28;20067;-57
2022/07/25 13:57:41;;;;;;;12.63;9.88;;;;;;;32.38;29.73;97352.28;10373783;28;20111;-57
2022/07/25 14:02:40;;;;;;;10.90;9.80;;;;;;;32.50;29.82;97356.44;10374504;28;20032;-57
2022/07/25 14:07:39;;;;;;;11.45;9.88;;;;;;;32.10;30.43;97356.78;10373770;28;20469;-57
2022/07/25 14:12:38;;;;;;;11.40;10.23;;;;;;;32.19;29.20;97354.03;10372356;28;20028;-57
2022/07/25 14:17:38;;;;;;;11.00;9.38;;;;;;;32.23;29.08;97346.56;10373599;28;20076;-56
2022/07/25 14:22:38;;;;;;;11.48;9.18;;;;;;;32.23;29.52;97343.88;10373148;28;20075;-57
2022/07/25 14:27:37;;;;;;;10.48;9.23;;;;;;;32.22;29.32;97336.78;10372993;28;20073;-57
2022/07/25 14:32:37;;;;;;;10.45;9.15;;;;;;;31.89;29.52;97336.31;10371494;28;20083;-57
2022/07/25 14:37:36;;;;;;;10.38;9.25;;;;;;;31.79;29.85;97332.81;10372058;28;20091;-57
2022/07/25 14:42:37;;;;;;;11.98;9.75;;;;;;;31.92;30.39;97341.41;10372657;28;20088;-57
2022/07/25 14:47:38;;;;;;;11.75;10.63;;;;;;;31.69;30.91;97327.50;10371586;28;20079;-57
2022/07/25 14:52:37;;;;;;;13.82;10.68;;;;;;;31.69;30.95;97329.34;10372151;28;20076;-56
2022/07/25 14:57:37;;;;;;;19.23;14.05;;;;;;;31.67;30.95;97323.25;10371164;28;20072;-56
2022/07/25 15:02:36;;;;;;;16.95;14.35;;;;;;;31.54;30.94;97308.28;10371214;28;20060;-56
2022/07/25 15:07:36;;;;;;;12.35;11.02;;;;;;;31.57;31.68;97313.41;10371936;28;20021;-56
2022/07/25 15:12:35;;;;;;;12.02;10.82;;;;;;;31.59;31.95;97319.47;10370686;28;20064;-55
2022/07/25 15:17:34;;;;;;;12.88;10.82;;;;;;;31.68;32.15;97317.72;10370225;28;20546;-56
2022/07/25 15:22:33;;;;;;;11.63;10.07;;;;;;;31.45;32.12;97310.97;10371700;28;20079;-55
2022/07/25 15:27:32;;;;;;;11.98;10.82;;;;;;;31.32;32.79;97306.75;10361985;28;20107;-55
2022/07/25 15:32:31;;;;;;;11.48;10.23;;;;;;;31.18;33.02;97309.88;10371722;28;20029;-56
2022/07/25 15:37:30;;;;;;;12.35;11.02;;;;;;;31.30;32.86;97310.56;10373386;28;20072;-55
2022/07/25 15:42:30;;;;;;;10.48;9.35;;;;;;;31.22;32.92;97310.44;10373672;28;20052;-55
2022/07/25 15:47:31;;;;;;;12.68;10.40;;;;;;;31.00;33.23;97317.75;10373149;28;20080;-55
2022/07/25 15:52:30;;;;;;;11.25;10.10;;;;;;;30.78;33.33;97313.50;10381190;28;20558;-55
2022/07/25 15:57:30;;;;;;;11.93;10.30;;;;;;;30.51;33.76;97317.66;10381004;28;20428;-55
2022/07/25 16:02:29;;;;;;;12.82;10.27;;;;;;;30.29;34.67;97316.03;10380738;28;20071;-55
2022/07/25 16:07:28;;;;;;;11.50;10.20;;;;;;;30.38;34.36;97309.03;10381190;28;20025;-55
2022/07/25 16:12:26;;;;;;;11.82;10.38;;;;;;;30.18;34.91;97331.34;10378885;28;20543;-55
2022/07/25 16:17:27;;;;;;;11.35;10.15;;;;;;;29.89;35.62;97322.19;10381112;28;20039;-55
2022/07/25 16:22:26;;;;;;;11.50;10.32;;;;;;;29.90;35.81;97318.53;10379399;28;20095;-55
2022/07/25 16:27:26;;;;;;;12.35;9.95;;;;;;;29.83;36.23;97322.69;10379000;28;20390;-56
2022/07/25 16:32:25;;;;;;;11.77;10.23;;;;;;;29.74;36.51;97319.97;10379262;28;20061;-56
2022/07/25 16:37:24;;;;;;;12.27;10.95;;;;;;;29.77;36.50;97314.38;10376958;28;20025;-56
2022/07/25 16:42:23;;;;;;;11.77;10.57;;;;;;;29.60;36.78;97315.81;10373989;28;20057;-56
2022/07/25 16:47:22;;;;;;;13.13;10.20;;;;;;;29.56;37.00;97319.75;10376630;28;20103;-56
2022/07/25 16:52:21;;;;;;;12.52;10.02;;;;;;;29.53;37.32;97318.16;10374826;28;20068;-56
2022/07/25 16:57:20;;;;;;;11.38;10.02;;;;;;;29.50;37.33;97321.09;10374430;28;20072;-56
2022/07/25 17:02:20;;;;;;;10.80;9.70;;;;;;;29.36;37.91;97313.41;10375017;28;20032;-56
2022/07/25 17:07:19;;;;;;;13.77;10.15;;;;;;;29.32;37.92;97318.19;10375960;28;20139;-56
2022/07/25 17:12:19;;;;;;;14.65;11.30;;;;;;;29.15;38.17;97316.03;10372605;28;20044;-56
2022/07/25 17:17:18;;;;;;;16.83;11.63;;;;;;;28.99;38.95;97322.66;10374340;28;20064;-56
2022/07/25 17:22:17;;;;;;;12.18;10.68;;;;;;;28.95;39.19;97325.72;10372953;28;20025;-56
2022/07/25 17:27:16;;;;;;;15.05;11.88;;;;;;;28.91;39.32;97318.94;10371545;28;20044;-56
2022/07/25 17:32:15;;;;;;;12.10;10.80;;;;;;;28.71;39.81;97323.22;10373329;28;20025;-56
2022/07/25 17:37:14;;;;;;;11.18;9.85;;;;;;;28.52;39.55;97326.50;10374391;28;20035;-56
2022/07/25 17:42:19;;;;;;;14.52;11.80;;;;;;;28.42;39.83;97329.06;10371053;28;20052;-56
2022/07/25 17:47:18;;;;;;;15.57;11.27;;;;;;;28.31;40.69;97329.09;10372713;28;20099;-56
2022/07/25 17:52:17;;;;;;;13.35;10.88;;;;;;;28.15;41.28;97341.00;10373721;28;20558;-57
2022/07/25 17:57:16;;;;;;;11.88;10.45;;;;;;;27.92;41.66;97334.78;10372918;28;20408;-56
2022/07/25 18:02:15;;;;;;;16.85;11.27;;;;;;;27.72;42.13;97346.97;10371795;28;20025;-56
2022/07/25 18:07:14;;;;;;;14.80;11.00;;;;;;;27.54;42.41;97357.25;10372631;28;20087;-56
2022/07/25 18:12:13;;;;;;;17.48;11.77;;;;;;;27.35;43.44;97360.44;10370602;28;20028;-56
2022/07/25 18:17:12;;;;;;;14.25;11.82;;;;;;;27.12;43.99;97358.63;10371256;28;20024;-58
2022/07/25 18:22:11;;;;;;;14.07;11.85;;;;;;;26.89;44.40;97355.88;10372534;28;20037;-57
2022/07/25 18:27:10;;;;;;;13.02;11.18;;;;;;;26.70;44.56;97360.81;10371805;28;20069;-58
2022/07/25 18:32:09;;;;;;;12.38;11.15;;;;;;;26.54;45.19;97364.59;10371030;28;20075;-55
2022/07/25 18:37:08;;;;;;;15.15;11.55;;;;;;;26.34;45.72;97365.16;10371622;28;20090;-56
2022/07/25 18:42:07;;;;;;;12.98;10.98;;;;;;;26.14;46.12;97370.06;10371434;28;20076;-56
2022/07/25 18:47:06;;;;;;;16.77;11.48;;;;;;;25.97;46.75;97367.72;10369620;28;20028;-56
2022/07/25 18:52:05;;;;;;;13.80;10.57;;;;;;;25.78;47.26;97380.59;10371348;28;20027;-56
2022/07/25 18:57:04;;;;;;;17.15;12.45;;;;;;;25.61;47.65;97389.72;10370608;28;20493;-56
2022/07/25 19:02:04;;;;;;;11.70;10.50;;;;;;;25.43;48.29;97389.94;10370463;28;20401;-56
2022/07/25 19:07:03;;;;;;;12.20;10.90;;;;;;;25.21;48.56;97387.88;10369528;28;20076;-56
2022/07/25 19:12:02;;;;;;;13.00;11.02;;;;;;;25.10;48.86;97393.06;10368067;28;20573;-56
2022/07/25 19:17:02;;;;;;;14.00;11.45;;;;;;;24.93;49.38;97399.47;10370118;28;20106;-56
2022/07/25 19:22:01;;;;;;;11.65;10.38;;;;;;;24.78;49.80;97401.28;10369285;28;20087;-56
2022/07/25 19:27:03;;;;;;;13.23;11.02;;;;;;;24.67;50.15;97417.88;10369734;28;20028;-56
2022/07/25 19:32:02;;;;;;;13.02;11.15;;;;;;;24.58;50.14;97423.78;10371415;28;20523;-56
2022/07/25 19:37:02;;;;;;;11.90;10.38;;;;;;;24.45;50.65;97421.06;10373507;28;20072;-56
2022/07/25 19:42:06;;;;;;;14.27;11.43;;;;;;;24.35;51.03;97422.56;10372001;28;20065;-56
2022/07/25 19:47:05;;;;;;;12.00;10.27;;;;;;;24.22;51.66;97424.28;10372846;28;20097;-56
2022/07/25 19:52:06;;;;;;;13.80;10.98;;;;;;;24.08;52.11;97427.75;10372784;28;20063;-56
2022/07/25 19:57:05;;;;;;;15.82;11.65;;;;;;;23.97;53.16;97428.38;10371601;28;20545;-56
2022/07/25 20:02:04;;;;;;;13.70;12.00;;;;;;;23.79;53.40;97427.69;10372864;28;20080;-56
2022/07/25 20:07:03;;;;;;;14.45;11.55;;;;;;;23.68;53.46;97429.25;10373986;28;20033;-56
2022/07/25 20:12:02;;;;;;;12.57;10.60;;;;;;;23.60;54.17;97433.22;10369725;28;20075;-56
2022/07/25 20:17:01;;;;;;;12.40;11.10;;;;;;;23.47;54.12;97423.44;10369220;28;20064;-56
2022/07/25 20:22:01;;;;;;;12.77;10.93;;;;;;;23.40;54.82;97428.22;10369939;28;20069;-56
2022/07/25 20:27:00;;;;;;;14.20;11.60;;;;;;;23.33;55.05;97424.22;10372326;28;20519;-55
2022/07/25 20:32:01;;;;;;;13.38;11.30;;;;;;;23.22;55.35;97427.47;10371355;28;20079;-55
2022/07/25 20:36:59;;;;;;;11.93;10.57;;;;;;;23.11;55.89;97428.09;10371679;28;20072;-55
2022/07/25 20:41:58;;;;;;;14.75;11.65;;;;;;;22.95;56.57;97403.44;10374621;28;20063;-55
2022/07/25 20:46:57;;;;;;;14.13;12.63;;;;;;;22.93;56.97;97421.22;10375170;28;20075;-55
2022/07/25 20:51:57;;;;;;;15.07;12.32;;;;;;;22.82;57.87;97415.66;10374081;28;20103;-55
2022/07/25 20:56:56;;;;;;;14.50;12.57;;;;;;;22.69;58.46;97413.66;10375230;28;20481;-55
2022/07/25 21:01:55;;;;;;;15.23;12.70;;;;;;;22.50;60.65;97423.53;10374063;28;20523;-55
2022/07/25 21:06:54;;;;;;;16.38;13.45;;;;;;;22.30;61.70;97420.19;10373038;28;20072;-55
2022/07/25 21:11:54;;;;;;;18.95;14.50;;;;;;;22.23;61.85;97421.47;10373889;28;20065;-55
2022/07/25 21:16:53;;;;;;;15.57;13.70;;;;;;;22.13;62.63;97426.38;10375369;28;20075;-55
2022/07/25 21:21:52;;;;;;;17.52;14.45;;;;;;;22.08;62.53;97422.25;10368770;28;20037;-55
2022/07/25 21:26:51;;;;;;;18.50;14.18;;;;;;;21.95;63.21;97428.16;10333874;28;20088;-55
2022/07/25 21:31:50;;;;;;;16.02;13.63;;;;;;;21.89;63.33;97419.69;10330590;28;20061;-56
2022/07/25 21:36:49;;;;;;;17.02;12.85;;;;;;;21.79;63.82;97416.69;10332767;28;20070;-55
2022/07/25 21:41:48;;;;;;;16.02;14.32;;;;;;;21.66;64.32;97412.97;10330972;28;20037;-55
2022/07/25 21:46:47;;;;;;;17.08;14.20;;;;;;;21.63;64.45;97419.25;10333520;28;20487;-55
2022/07/25 21:51:46;;;;;;;17.48;12.95;;;;;;;21.57;64.71;97414.31;10330713;28;20423;-55
2022/07/25 21:56:45;;;;;;;17.48;13.30;;;;;;;21.49;65.41;97409.38;10371749;28;20040;-55
2022/07/25 22:01:44;;;;;;;19.48;14.27;;;;;;;21.46;65.64;97414.84;10367796;28;20081;-55
2022/07/25 22:06:43;;;;;;;17.08;14.27;;;;;;;21.28;66.74;97415.75;10368800;28;20036;-55
2022/07/25 22:11:44;;;;;;;15.68;14.00;;;;;;;21.19;67.45;97406.47;10372358;28;20492;-55
2022/07/25 22:16:43;;;;;;;17.60;13.95;;;;;;;21.07;68.08;97396.50;10373597;28;20504;-55
2022/07/25 22:21:42;;;;;;;18.35;16.40;;;;;;;20.88;68.79;97401.84;10370941;28;20021;-55
2022/07/25 22:26:41;;;;;;;22.27;18.17;;;;;;;20.69;69.55;97407.13;10369166;28;20075;-55
2022/07/25 22:31:40;;;;;;;19.25;16.58;;;;;;;20.58;69.87;97394.44;10370364;28;20428;-55
2022/07/25 22:36:39;;;;;;;20.60;17.70;;;;;;;20.50;70.39;97386.91;10374810;28;20257;-55
2022/07/25 22:41:38;;;;;;;19.02;16.50;;;;;;;20.47;70.37;97391.50;10375508;28;20085;-55
2022/07/25 22:46:37;;;;;;;21.75;17.75;;;;;;;20.44;70.83;97394.25;10375474;28;20544;-55